createdAt,value
2023-03-04T00:03:30.739Z,97939.31
2023-03-04T00:07:35.492Z,97935.66
2023-03-04T00:11:38.830Z,97939.00
2023-03-04T00:15:41.759Z,97939.78
2023-03-04T00:19:45.218Z,97938.78
2023-03-04T00:23:50.079Z,97941.13
2023-03-04T00:27:53.660Z,97944.03
2023-03-04T00:31:56.655Z,97945.28
2023-03-04T00:36:00.265Z,97946.44
2023-03-04T00:40:05.568Z,97944.09
2023-03-04T00:44:09.507Z,97949.44
2023-03-04T00:48:13.153Z,97944.50
2023-03-04T00:52:16.397Z,97943.09
2023-03-04T00:56:20.702Z,97936.31
2023-03-04T01:00:24.420Z,97933.72
2023-03-04T01:04:28.047Z,97930.22
2023-03-04T01:08:30.916Z,97932.78
2023-03-04T01:12:35.947Z,97918.28
2023-03-04T01:16:39.251Z,97919.19
2023-03-04T01:20:42.696Z,97921.06
2023-03-04T01:24:46.123Z,97912.63
2023-03-04T01:28:50.489Z,97910.88
2023-03-04T01:32:53.899Z,97906.53
2023-03-04T01:36:57.325Z,97907.34
2023-03-04T01:41:00.785Z,97906.31
2023-03-04T01:45:06.325Z,97904.69
2023-03-04T01:49:14.112Z,97903.75
2023-03-04T01:53:22.358Z,97895.31
2023-03-04T01:57:28.333Z,97898.81
2023-03-04T02:01:33.113Z,97899.75
2023-03-04T02:05:38.562Z,97896.44
2023-03-04T02:10:09.599Z,97890.59
2023-03-04T02:14:14.610Z,97892.44
2023-03-04T02:18:22.420Z,97884.84
2023-03-04T02:22:25.992Z,97891.75
2023-03-04T02:26:32.683Z,97886.59
2023-03-04T02:30:37.116Z,97879.78
2023-03-04T02:34:46.085Z,97877.31
2023-03-04T02:38:51.287Z,97872.19
2023-03-04T02:42:56.467Z,97874.75
2023-03-04T02:47:00.203Z,97862.13
2023-03-04T02:51:04.235Z,97861.19
2023-03-04T02:55:09.974Z,97861.09
2023-03-04T02:59:14.786Z,97853.94
2023-03-04T03:03:18.140Z,97857.13
2023-03-04T03:07:21.727Z,97857.81
2023-03-04T03:11:26.683Z,97858.44
2023-03-04T03:15:31.854Z,97853.06
2023-03-04T03:24:56.661Z,97849.44
2023-03-04T03:29:00.037Z,97854.69
2023-03-04T03:33:04.963Z,97848.88
2023-03-04T03:37:08.424Z,97852.56
2023-03-04T03:41:11.502Z,97847.78
2023-03-04T03:45:14.945Z,97837.91
2023-03-04T03:49:19.524Z,97837.50
2023-03-04T03:53:22.945Z,97842.28
2023-03-04T03:57:25.934Z,97834.53
2023-03-04T04:01:29.987Z,97839.78
2023-03-04T04:05:34.337Z,97842.66
2023-03-04T04:09:37.629Z,97831.88
2023-03-04T04:13:40.585Z,97832.06
2023-03-04T04:17:43.953Z,97828.81
2023-03-04T04:21:49.279Z,97833.97
2023-03-04T04:25:52.541Z,97830.66
2023-03-04T04:29:55.530Z,97830.66
2023-03-04T04:33:59.052Z,97833.97
2023-03-04T04:38:03.554Z,97830.44
2023-03-04T04:42:07.457Z,97836.31
2023-03-04T04:46:10.617Z,97835.47
2023-03-04T04:50:14.669Z,97833.75
2023-03-04T04:54:19.319Z,97831.28
2023-03-04T04:58:22.771Z,97828.81
2023-03-04T05:02:25.713Z,97826.44
2023-03-04T05:06:31.134Z,97829.22
2023-03-04T05:10:35.406Z,97827.59
2023-03-04T05:14:39.326Z,97823.47
2023-03-04T05:18:42.486Z,97832.13
2023-03-04T05:22:46.789Z,97838.31
2023-03-04T05:26:51.031Z,97834.09
2023-03-04T05:30:54.694Z,97839.34
2023-03-04T05:34:57.806Z,97834.31
2023-03-04T05:39:01.128Z,97836.88
2023-03-04T05:43:05.612Z,97846.34
2023-03-04T05:47:09.107Z,97852.44
2023-03-04T05:51:12.884Z,97855.81
2023-03-04T05:55:16.382Z,97858.38
2023-03-04T05:59:20.949Z,97860.13
2023-03-04T06:03:25.313Z,97861.16
2023-03-04T06:07:28.348Z,97870.63
2023-03-04T06:11:31.969Z,97873.09
2023-03-04T06:15:36.726Z,97871.34
2023-03-04T06:19:42.017Z,97876.16
2023-03-04T06:23:45.632Z,97884.41
2023-03-04T06:27:50.625Z,97882.31
2023-03-04T06:31:55.769Z,97895.50
2023-03-04T06:35:59.108Z,97895.03
2023-03-04T06:40:03.956Z,97903.06
2023-03-04T06:44:07.275Z,97901.69
2023-03-04T06:48:13.832Z,97900.97
2023-03-04T06:52:16.856Z,97913.78
2023-03-04T06:56:20.331Z,97907.88
2023-03-04T07:00:24.797Z,97903.56
2023-03-04T07:04:29.911Z,97906.91
2023-03-04T07:08:32.775Z,97904.84
2023-03-04T07:12:36.036Z,97909.59
2023-03-04T07:16:39.355Z,97915.97
2023-03-04T07:20:44.102Z,97918.59
2023-03-04T07:24:47.386Z,97914.31
2023-03-04T07:28:52.725Z,97912.56
2023-03-04T07:32:58.443Z,97912.50
2023-03-04T07:37:03.049Z,97907.19
2023-03-04T07:41:06.673Z,97921.22
2023-03-04T07:45:11.954Z,97920.31
2023-03-04T07:49:15.735Z,97912.97
2023-03-04T07:53:20.901Z,97914.88
2023-03-04T07:57:23.980Z,97917.25
2023-03-04T08:01:30.347Z,97918.13
2023-03-04T08:05:33.408Z,97924.44
2023-03-04T08:09:37.999Z,97929.34
2023-03-04T08:13:41.691Z,97925.13
2023-03-04T08:17:45.254Z,97922.56
2023-03-04T08:21:48.133Z,97924.44
2023-03-04T08:25:53.257Z,97925.13
2023-03-04T08:29:56.218Z,97922.00
2023-03-04T08:33:59.230Z,97925.34
2023-03-04T08:38:02.626Z,97919.00
2023-03-04T08:42:08.095Z,97917.47
2023-03-04T08:46:11.235Z,97919.16
2023-03-04T08:50:14.675Z,97918.16
2023-03-04T08:54:17.879Z,97921.88
2023-03-04T08:58:22.613Z,97919.41
2023-03-04T09:02:25.662Z,97918.00
2023-03-04T09:06:28.797Z,97912.88
2023-03-04T09:10:31.878Z,97907.88
2023-03-04T09:14:38.182Z,97902.50
2023-03-04T09:18:41.740Z,97899.47
2023-03-04T09:22:45.060Z,97897.34
2023-03-04T09:26:51.687Z,97897.06
2023-03-04T09:30:56.408Z,97902.69
2023-03-04T09:34:59.331Z,97889.59
2023-03-04T09:39:04.277Z,97895.16
2023-03-04T09:43:12.744Z,97887.91
2023-03-04T09:47:19.700Z,97878.91
2023-03-04T09:51:24.901Z,97883.91
2023-03-04T09:55:35.954Z,97881.69
2023-03-04T09:59:46.107Z,97874.56
2023-03-04T10:14:46.064Z,97866.53
2023-03-04T10:18:54.701Z,97860.50
2023-03-04T10:23:00.897Z,97856.59
2023-03-04T10:27:08.570Z,97857.38
2023-03-04T10:31:22.744Z,97848.06
2023-03-04T10:35:34.574Z,97841.66
2023-03-04T10:39:40.206Z,97837.72
2023-03-04T10:43:45.513Z,97828.69
2023-03-04T10:47:55.724Z,97829.47
2023-03-04T10:52:04.280Z,97822.41
2023-03-04T10:56:26.217Z,97813.56
2023-03-04T11:00:32.089Z,97818.63
2023-03-04T11:04:38.052Z,97809.81
2023-03-04T11:08:42.345Z,97815.22
2023-03-04T11:12:50.781Z,97805.53
2023-03-04T11:16:57.315Z,97799.97
2023-03-04T11:21:03.335Z,97800.28
2023-03-04T11:25:09.463Z,97801.84
2023-03-04T11:29:18.571Z,97789.34
2023-03-04T11:33:28.120Z,97784.09
2023-03-04T11:37:39.481Z,97775.03
2023-03-04T11:41:50.612Z,97774.13
2023-03-04T11:46:21.918Z,97760.34
2023-03-04T11:50:38.907Z,97755.94
2023-03-04T11:55:06.458Z,97750.69
2023-03-04T11:59:32.109Z,97746.56
2023-03-04T12:03:56.727Z,97740.13
2023-03-04T12:08:33.499Z,97734.28
2023-03-04T12:12:55.582Z,97731.28
2023-03-04T12:17:35.647Z,97728.56
2023-03-04T12:22:03.607Z,97722.25
2023-03-04T12:26:18.112Z,97710.91
2023-03-04T12:30:38.111Z,97698.25
2023-03-04T12:34:58.856Z,97694.00
2023-03-04T12:39:08.738Z,97695.19
2023-03-04T12:43:36.531Z,97692.63
2023-03-04T12:47:51.692Z,97680.97
2023-03-04T12:52:04.273Z,97683.03
2023-03-04T12:56:10.319Z,97670.34
2023-03-04T13:00:36.242Z,97672.22
2023-03-04T13:04:54.769Z,97663.50
2023-03-04T13:09:06.456Z,97660.97
2023-03-04T13:13:43.338Z,97655.03
2023-03-04T13:17:49.266Z,97655.16
2023-03-04T13:21:55.261Z,97648.28
2023-03-04T13:26:21.454Z,97649.63
2023-03-04T13:31:05.793Z,97637.69
2023-03-04T13:35:42.056Z,97637.53
2023-03-04T13:39:45.445Z,97636.50
2023-03-04T13:43:50.598Z,97626.34
2023-03-04T13:47:55.842Z,97625.41
2023-03-04T13:51:59.946Z,97609.53
2023-03-04T13:56:20.089Z,97605.06
2023-03-04T14:00:23.169Z,97602.88
2023-03-04T14:04:33.940Z,97589.56
2023-03-04T14:08:36.820Z,97597.53
2023-03-04T14:12:45.585Z,97594.22
2023-03-04T14:16:51.287Z,97585.84
2023-03-04T14:20:59.390Z,97580.25
2023-03-04T14:25:05.990Z,97583.88
2023-03-04T14:29:24.008Z,97580.25
2023-03-04T14:33:29.409Z,97566.41
2023-03-04T14:37:44.225Z,97576.38
2023-03-04T14:41:50.517Z,97579.09
2023-03-04T14:45:56.425Z,97566.19
2023-03-04T14:49:59.537Z,97571.19
2023-03-04T14:54:04.386Z,97578.47
2023-03-04T14:58:09.680Z,97570.56
2023-03-04T15:02:31.692Z,97572.31
2023-03-04T15:06:36.344Z,97574.38
2023-03-04T15:10:41.070Z,97567.75
2023-03-04T15:19:02.510Z,97565.78
2023-03-04T15:23:10.044Z,97576.91
2023-03-04T15:27:17.516Z,97580.53
2023-03-04T15:31:22.596Z,97578.91
2023-03-04T15:35:29.905Z,97580.69
2023-03-04T15:39:33.621Z,97588.03
2023-03-04T15:43:39.148Z,97585.72
2023-03-04T15:47:43.271Z,97587.09
2023-03-04T15:51:46.726Z,97595.34
2023-03-04T15:55:49.874Z,97587.13
2023-03-04T15:59:55.622Z,97592.56
2023-03-04T16:03:58.530Z,97592.09
2023-03-04T16:08:01.957Z,97595.09
2023-03-04T16:12:05.119Z,97602.22
2023-03-04T16:16:13.790Z,97609.50
2023-03-04T16:20:19.211Z,97619.81
2023-03-04T16:24:22.518Z,97626.84
2023-03-04T16:28:25.485Z,97635.59
2023-03-04T16:32:32.569Z,97639.13
2023-03-04T16:36:37.437Z,97636.06
2023-03-04T16:40:40.984Z,97651.25
2023-03-04T16:44:44.150Z,97650.44
2023-03-04T16:48:49.752Z,97649.88
2023-03-04T16:52:52.656Z,97668.06
2023-03-04T16:56:55.994Z,97665.13
2023-03-04T17:00:59.171Z,97672.53
2023-03-04T17:05:04.618Z,97675.28
2023-03-04T17:09:08.251Z,97697.03
2023-03-04T17:13:11.486Z,97703.00
2023-03-04T17:17:16.272Z,97707.91
2023-03-04T17:21:24.506Z,97715.50
2023-03-04T17:25:27.910Z,97730.75
2023-03-04T17:29:31.193Z,97751.75
2023-03-04T17:33:34.138Z,97758.91
2023-03-04T17:37:38.874Z,97756.59
2023-03-04T17:41:42.026Z,97761.28
2023-03-04T17:45:45.626Z,97774.03
2023-03-04T17:49:48.804Z,97772.03
2023-03-04T17:53:53.619Z,97778.81
2023-03-04T17:57:58.332Z,97782.81
2023-03-04T18:02:01.515Z,97787.81
2023-03-04T18:06:04.816Z,97801.25
2023-03-04T18:10:10.696Z,97800.78
2023-03-04T18:14:14.352Z,97805.44
2023-03-04T18:18:17.636Z,97816.91
2023-03-04T18:22:20.591Z,97818.88
2023-03-04T18:26:27.085Z,97829.41
2023-03-04T18:30:29.988Z,97827.19
2023-03-04T18:34:33.246Z,97840.28
2023-03-04T18:38:36.605Z,97839.66
2023-03-04T18:42:45.151Z,97839.41
2023-03-04T18:46:51.789Z,97836.41
2023-03-04T18:50:58.595Z,97837.78
2023-03-04T18:55:01.531Z,97838.69
2023-03-04T18:59:08.423Z,97847.97
2023-03-04T19:03:14.032Z,97848.81
2023-03-04T19:07:17.658Z,97853.94
2023-03-04T19:11:20.562Z,97837.94
2023-03-04T19:15:25.704Z,97859.44
2023-03-04T19:19:28.628Z,97860.38
2023-03-04T19:23:31.985Z,97864.09
2023-03-04T19:27:34.943Z,97879.59
2023-03-04T19:31:41.698Z,97880.75
2023-03-04T19:35:48.262Z,97864.91
2023-03-04T19:39:52.518Z,97876.53
2023-03-04T19:43:55.618Z,97882.91
2023-03-04T19:48:00.683Z,97887.41
2023-03-04T19:52:03.673Z,97878.25
2023-03-04T19:56:07.668Z,97892.25
2023-03-04T20:00:11.969Z,97886.44
2023-03-04T20:04:18.703Z,97890.13
2023-03-04T20:08:21.631Z,97897.34
2023-03-04T20:12:25.650Z,97898.34
2023-03-04T20:16:29.597Z,97900.69
2023-03-04T20:20:34.147Z,97901.81
2023-03-04T20:24:37.601Z,97897.97
2023-03-04T20:28:40.940Z,97897.44
2023-03-04T20:32:44.134Z,97900.34
2023-03-04T20:36:48.512Z,97905.44
2023-03-04T20:40:51.596Z,97900.06
2023-03-04T20:44:56.101Z,97900.47
2023-03-04T20:49:01.344Z,97904.47
2023-03-04T20:53:06.144Z,97900.84
2023-03-04T20:57:10.797Z,97884.81
2023-03-04T21:01:14.694Z,97890.94
2023-03-04T21:05:17.769Z,97892.56
2023-03-04T21:09:25.459Z,97894.94
2023-03-04T21:13:30.585Z,97889.78
2023-03-04T21:17:34.222Z,97892.13
2023-03-04T21:21:37.274Z,97893.78
2023-03-04T21:25:42.571Z,97890.25
2023-03-04T21:29:45.959Z,97881.59
2023-03-04T21:33:49.653Z,97880.78
2023-03-04T21:37:52.778Z,97883.25
2023-03-04T21:41:58.279Z,97871.88
2023-03-04T21:46:01.489Z,97873.63
2023-03-04T21:50:05.872Z,97871.78
2023-03-04T21:54:10.046Z,97877.88
2023-03-04T21:58:14.716Z,97876.09
2023-03-04T22:02:20.219Z,97870.16
2023-03-04T22:06:41.465Z,97872.72
2023-03-04T22:10:47.340Z,97875.28
2023-03-04T22:14:52.551Z,97864.88
2023-03-04T22:18:55.912Z,97857.25
2023-03-04T22:22:59.157Z,97854.56
2023-03-04T22:27:02.150Z,97855.28
2023-03-04T22:31:15.414Z,97860.31
2023-03-04T22:35:18.764Z,97853.53
2023-03-04T22:39:23.248Z,97854.34
2023-03-04T22:43:26.644Z,97858.47
2023-03-04T22:47:32.242Z,97857.50
2023-03-04T22:51:35.246Z,97854.81
2023-03-04T22:55:38.453Z,97856.34
2023-03-04T22:59:41.454Z,97851.91
2023-03-04T23:03:47.485Z,97852.63
2023-03-04T23:07:52.436Z,97844.91
2023-03-04T23:11:55.709Z,97847.38
2023-03-04T23:15:58.567Z,97841.16
2023-03-04T23:20:03.846Z,97849.56
2023-03-04T23:24:08.418Z,97840.09
2023-03-04T23:28:12.009Z,97845.16
2023-03-04T23:32:15.064Z,97829.69
2023-03-04T23:36:20.701Z,97840.59
2023-03-04T23:40:23.625Z,97828.63
2023-03-04T23:44:26.953Z,97821.72
2023-03-04T23:48:30.217Z,97812.38
2023-03-04T23:52:34.792Z,97809.78
2023-03-04T23:56:37.892Z,97814.22
